sensor_id;sensor_type;location;lat;lon;timestamp;pressure;altitude;pressure_sealevel;temperature;humidity
76808;BME280;65758;45.458;11.062;2023-04-03T00:01:06;100716.04;;;12.26;56.36
76808;BME280;65758;45.458;11.062;2023-04-03T00:03:33;100711.27;;;12.21;55.79
76808;BME280;65758;45.458;11.062;2023-04-03T00:06:00;100712.02;;;12.15;56.09
76808;BME280;65758;45.458;11.062;2023-04-03T00:08:27;100710.70;;;12.09;56.47
76808;BME280;65758;45.458;11.062;2023-04-03T00:10:57;100708.89;;;12.03;56.25
76808;BME280;65758;45.458;11.062;2023-04-03T00:13:24;100706.36;;;11.95;56.09
76808;BME280;65758;45.458;11.062;2023-04-03T00:15:52;100700.51;;;11.85;55.79
76808;BME280;65758;45.458;11.062;2023-04-03T00:18:18;100695.42;;;11.76;55.91
76808;BME280;65758;45.458;11.062;2023-04-03T00:20:46;100695.27;;;11.71;55.64
76808;BME280;65758;45.458;11.062;2023-04-03T00:23:13;100696.14;;;11.70;55.74
76808;BME280;65758;45.458;11.062;2023-04-03T00:25:40;100697.83;;;11.69;55.80
76808;BME280;65758;45.458;11.062;2023-04-03T00:28:07;100691.79;;;11.67;55.55
76808;BME280;65758;45.458;11.062;2023-04-03T00:30:34;100695.34;;;11.63;55.85
76808;BME280;65758;45.458;11.062;2023-04-03T00:33:01;100687.43;;;11.62;56.03
76808;BME280;65758;45.458;11.062;2023-04-03T00:35:29;100688.35;;;11.61;55.65
76808;BME280;65758;45.458;11.062;2023-04-03T00:37:56;100686.96;;;11.60;55.41
76808;BME280;65758;45.458;11.062;2023-04-03T00:40:24;100684.88;;;11.58;55.01
76808;BME280;65758;45.458;11.062;2023-04-03T00:42:56;100687.41;;;11.55;55.26
76808;BME280;65758;45.458;11.062;2023-04-03T00:45:25;100691.93;;;11.53;55.54
76808;BME280;65758;45.458;11.062;2023-04-03T00:47:52;100687.72;;;11.52;55.22
76808;BME280;65758;45.458;11.062;2023-04-03T00:50:19;100683.16;;;11.49;55.04
76808;BME280;65758;45.458;11.062;2023-04-03T00:52:47;100689.45;;;11.46;54.94
76808;BME280;65758;45.458;11.062;2023-04-03T00:55:16;100684.98;;;11.43;54.84
76808;BME280;65758;45.458;11.062;2023-04-03T00:57:43;100683.98;;;11.43;54.74
76808;BME280;65758;45.458;11.062;2023-04-03T01:00:14;100683.71;;;11.43;54.22
76808;BME280;65758;45.458;11.062;2023-04-03T01:02:43;100681.05;;;11.44;54.18
76808;BME280;65758;45.458;11.062;2023-04-03T01:05:12;100678.80;;;11.45;53.97
76808;BME280;65758;45.458;11.062;2023-04-03T01:07:42;100682.18;;;11.47;54.09
76808;BME280;65758;45.458;11.062;2023-04-03T01:10:11;100680.73;;;11.48;54.08
76808;BME280;65758;45.458;11.062;2023-04-03T01:12:43;100680.30;;;11.49;53.58
76808;BME280;65758;45.458;11.062;2023-04-03T01:15:24;100683.35;;;11.48;53.49
76808;BME280;65758;45.458;11.062;2023-04-03T01:17:57;100678.96;;;11.45;53.62
76808;BME280;65758;45.458;11.062;2023-04-03T01:25:38;100680.29;;;11.42;53.55
76808;BME280;65758;45.458;11.062;2023-04-03T01:28:07;100681.22;;;11.41;53.39
76808;BME280;65758;45.458;11.062;2023-04-03T01:30:41;100677.92;;;11.41;53.53
76808;BME280;65758;45.458;11.062;2023-04-03T01:33:09;100676.30;;;11.43;54.21
76808;BME280;65758;45.458;11.062;2023-04-03T01:35:37;100678.69;;;11.44;53.95
76808;BME280;65758;45.458;11.062;2023-04-03T01:38:04;100675.95;;;11.45;53.75
76808;BME280;65758;45.458;11.062;2023-04-03T01:40:31;100676.45;;;11.46;54.09
76808;BME280;65758;45.458;11.062;2023-04-03T01:42:58;100672.69;;;11.47;53.72
76808;BME280;65758;45.458;11.062;2023-04-03T01:45:25;100672.16;;;11.46;53.72
76808;BME280;65758;45.458;11.062;2023-04-03T01:47:52;100673.41;;;11.45;53.95
76808;BME280;65758;45.458;11.062;2023-04-03T01:50:18;100672.54;;;11.43;53.69
76808;BME280;65758;45.458;11.062;2023-04-03T01:52:46;100674.09;;;11.42;53.62
76808;BME280;65758;45.458;11.062;2023-04-03T01:55:13;100676.11;;;11.41;53.71
76808;BME280;65758;45.458;11.062;2023-04-03T01:57:40;100679.66;;;11.41;53.34
76808;BME280;65758;45.458;11.062;2023-04-03T02:00:07;100678.45;;;11.41;53.35
76808;BME280;65758;45.458;11.062;2023-04-03T02:02:38;100676.47;;;11.41;53.21
76808;BME280;65758;45.458;11.062;2023-04-03T02:05:06;100675.77;;;11.39;53.47
76808;BME280;65758;45.458;11.062;2023-04-03T02:07:33;100669.83;;;11.38;53.25
76808;BME280;65758;45.458;11.062;2023-04-03T02:10:00;100671.19;;;11.38;53.26
76808;BME280;65758;45.458;11.062;2023-04-03T02:12:27;100670.29;;;11.36;53.14
76808;BME280;65758;45.458;11.062;2023-04-03T02:14:54;100667.75;;;11.34;53.29
76808;BME280;65758;45.458;11.062;2023-04-03T02:17:21;100669.12;;;11.33;53.31
76808;BME280;65758;45.458;11.062;2023-04-03T02:19:47;100666.46;;;11.33;53.58
76808;BME280;65758;45.458;11.062;2023-04-03T02:22:14;100664.44;;;11.33;53.37
76808;BME280;65758;45.458;11.062;2023-04-03T02:24:41;100661.80;;;11.35;53.74
76808;BME280;65758;45.458;11.062;2023-04-03T02:27:08;100663.13;;;11.36;53.57
76808;BME280;65758;45.458;11.062;2023-04-03T02:29:35;100661.09;;;11.35;53.72
76808;BME280;65758;45.458;11.062;2023-04-03T02:32:02;100663.58;;;11.32;53.75
76808;BME280;65758;45.458;11.062;2023-04-03T02:34:29;100662.92;;;11.28;54.22
76808;BME280;65758;45.458;11.062;2023-04-03T02:36:57;100665.52;;;11.26;54.66
76808;BME280;65758;45.458;11.062;2023-04-03T02:39:24;100661.30;;;11.26;54.28
76808;BME280;65758;45.458;11.062;2023-04-03T02:41:51;100660.77;;;11.25;54.40
76808;BME280;65758;45.458;11.062;2023-04-03T02:44:21;100662.32;;;11.22;54.96
76808;BME280;65758;45.458;11.062;2023-04-03T02:46:51;100660.38;;;11.19;54.93
76808;BME280;65758;45.458;11.062;2023-04-03T02:49:18;100664.96;;;11.18;55.39
76808;BME280;65758;45.458;11.062;2023-04-03T02:51:45;100669.96;;;11.19;55.57
76808;BME280;65758;45.458;11.062;2023-04-03T02:54:13;100665.77;;;11.20;55.51
76808;BME280;65758;45.458;11.062;2023-04-03T02:56:42;100665.16;;;11.21;55.21
76808;BME280;65758;45.458;11.062;2023-04-03T02:59:09;100661.92;;;11.21;55.19
76808;BME280;65758;45.458;11.062;2023-04-03T03:01:37;100663.27;;;11.23;55.24
76808;BME280;65758;45.458;11.062;2023-04-03T03:04:04;100662.63;;;11.25;55.58
76808;BME280;65758;45.458;11.062;2023-04-03T03:06:30;100661.97;;;11.27;55.61
76808;BME280;65758;45.458;11.062;2023-04-03T03:08:57;100662.16;;;11.28;55.51
76808;BME280;65758;45.458;11.062;2023-04-03T03:11:25;100666.08;;;11.27;55.69
76808;BME280;65758;45.458;11.062;2023-04-03T03:13:52;100671.11;;;11.27;55.61
76808;BME280;65758;45.458;11.062;2023-04-03T03:16:18;100672.94;;;11.25;55.60
76808;BME280;65758;45.458;11.062;2023-04-03T03:18:46;100669.17;;;11.24;55.37
76808;BME280;65758;45.458;11.062;2023-04-03T03:21:13;100667.14;;;11.22;55.82
76808;BME280;65758;45.458;11.062;2023-04-03T03:23:40;100664.89;;;11.20;55.43
76808;BME280;65758;45.458;11.062;2023-04-03T03:26:09;100667.70;;;11.18;55.69
76808;BME280;65758;45.458;11.062;2023-04-03T03:28:37;100665.23;;;11.16;56.04
76808;BME280;65758;45.458;11.062;2023-04-03T03:31:05;100663.54;;;11.16;56.06
76808;BME280;65758;45.458;11.062;2023-04-03T03:33:33;100663.63;;;11.15;55.83
76808;BME280;65758;45.458;11.062;2023-04-03T03:36:00;100669.09;;;11.15;56.04
76808;BME280;65758;45.458;11.062;2023-04-03T03:38:27;100671.70;;;11.15;55.93
76808;BME280;65758;45.458;11.062;2023-04-03T03:40:54;100673.95;;;11.14;56.46
76808;BME280;65758;45.458;11.062;2023-04-03T03:43:21;100676.59;;;11.15;56.60
76808;BME280;65758;45.458;11.062;2023-04-03T03:45:52;100674.45;;;11.17;56.87
76808;BME280;65758;45.458;11.062;2023-04-03T03:48:20;100677.16;;;11.22;56.98
76808;BME280;65758;45.458;11.062;2023-04-03T03:50:48;100683.10;;;11.26;56.81
76808;BME280;65758;45.458;11.062;2023-04-03T03:53:16;100683.96;;;11.30;56.85
76808;BME280;65758;45.458;11.062;2023-04-03T03:55:43;100684.66;;;11.39;57.27
76808;BME280;65758;45.458;11.062;2023-04-03T03:58:10;100688.02;;;11.48;56.97
76808;BME280;65758;45.458;11.062;2023-04-03T04:00:37;100689.23;;;11.55;57.00
76808;BME280;65758;45.458;11.062;2023-04-03T04:03:04;100689.15;;;11.60;57.38
76808;BME280;65758;45.458;11.062;2023-04-03T04:05:31;100689.92;;;11.65;57.08
76808;BME280;65758;45.458;11.062;2023-04-03T04:07:59;100688.16;;;11.70;57.00
76808;BME280;65758;45.458;11.062;2023-04-03T04:10:26;100689.52;;;11.76;56.93
76808;BME280;65758;45.458;11.062;2023-04-03T04:12:53;100690.90;;;11.80;56.65
76808;BME280;65758;45.458;11.062;2023-04-03T04:15:23;100691.09;;;11.83;56.72
76808;BME280;65758;45.458;11.062;2023-04-03T04:17:52;100696.65;;;11.85;56.30
76808;BME280;65758;45.458;11.062;2023-04-03T04:20:20;100696.58;;;11.88;56.48
76808;BME280;65758;45.458;11.062;2023-04-03T04:22:47;100694.89;;;11.90;56.11
76808;BME280;65758;45.458;11.062;2023-04-03T04:25:15;100693.40;;;11.93;56.45
76808;BME280;65758;45.458;11.062;2023-04-03T04:27:42;100695.56;;;11.95;56.24
76808;BME280;65758;45.458;11.062;2023-04-03T04:30:12;100696.20;;;11.97;55.95
76808;BME280;65758;45.458;11.062;2023-04-03T04:32:39;100694.52;;;12.00;55.84
76808;BME280;65758;45.458;11.062;2023-04-03T04:35:06;100694.73;;;12.01;56.25
76808;BME280;65758;45.458;11.062;2023-04-03T04:37:35;100699.26;;;12.01;56.20
76808;BME280;65758;45.458;11.062;2023-04-03T04:40:02;100703.30;;;12.01;55.77
76808;BME280;65758;45.458;11.062;2023-04-03T04:42:29;100706.46;;;12.02;56.00
76808;BME280;65758;45.458;11.062;2023-04-03T04:44:56;100711.04;;;12.03;56.12
76808;BME280;65758;45.458;11.062;2023-04-03T04:47:23;100707.22;;;12.03;56.32
76808;BME280;65758;45.458;11.062;2023-04-03T04:49:50;100709.95;;;12.03;56.18
76808;BME280;65758;45.458;11.062;2023-04-03T04:52:17;100710.98;;;12.02;56.16
76808;BME280;65758;45.458;11.062;2023-04-03T04:54:44;100712.90;;;12.00;56.18
76808;BME280;65758;45.458;11.062;2023-04-03T04:57:11;100716.48;;;11.98;55.95
76808;BME280;65758;45.458;11.062;2023-04-03T04:59:38;100713.48;;;11.97;56.19
76808;BME280;65758;45.458;11.062;2023-04-03T05:02:06;100714.45;;;11.96;56.45
76808;BME280;65758;45.458;11.062;2023-04-03T05:04:33;100713.32;;;11.95;56.53
76808;BME280;65758;45.458;11.062;2023-04-03T05:07:05;100714.45;;;11.94;56.60
76808;BME280;65758;45.458;11.062;2023-04-03T05:09:34;100713.39;;;11.93;55.99
76808;BME280;65758;45.458;11.062;2023-04-03T05:12:01;100717.40;;;11.94;56.20
76808;BME280;65758;45.458;11.062;2023-04-03T05:14:34;100721.56;;;11.95;56.46
76808;BME280;65758;45.458;11.062;2023-04-03T05:17:03;100719.70;;;11.95;56.71
76808;BME280;65758;45.458;11.062;2023-04-03T05:19:32;100725.24;;;11.96;56.70
76808;BME280;65758;45.458;11.062;2023-04-03T05:22:00;100727.71;;;11.97;56.60
76808;BME280;65758;45.458;11.062;2023-04-03T05:24:28;100727.63;;;11.97;56.85
76808;BME280;65758;45.458;11.062;2023-04-03T05:26:55;100726.95;;;11.97;56.79
76808;BME280;65758;45.458;11.062;2023-04-03T05:29:22;100734.54;;;12.04;56.64
76808;BME280;65758;45.458;11.062;2023-04-03T05:31:50;100741.38;;;12.25;56.40
76808;BME280;65758;45.458;11.062;2023-04-03T05:34:17;100751.43;;;12.44;55.71
76808;BME280;65758;45.458;11.062;2023-04-03T05:36:46;100752.83;;;12.62;55.81
76808;BME280;65758;45.458;11.062;2023-04-03T05:39:13;100750.46;;;12.76;55.30
76808;BME280;65758;45.458;11.062;2023-04-03T05:41:42;100748.01;;;12.92;55.37
76808;BME280;65758;45.458;11.062;2023-04-03T05:44:09;100747.02;;;13.05;55.11
76808;BME280;65758;45.458;11.062;2023-04-03T05:46:35;100746.79;;;13.16;54.93
76808;BME280;65758;45.458;11.062;2023-04-03T05:49:04;100751.67;;;13.38;54.76
76808;BME280;65758;45.458;11.062;2023-04-03T05:51:35;100745.87;;;13.56;54.38
76808;BME280;65758;45.458;11.062;2023-04-03T05:54:23;100751.37;;;13.67;53.91
76808;BME280;65758;45.458;11.062;2023-04-03T05:56:54;100750.87;;;13.70;54.02
76808;BME280;65758;45.458;11.062;2023-04-03T05:59:21;100747.99;;;13.66;53.73
76808;BME280;65758;45.458;11.062;2023-04-03T06:01:50;100745.69;;;13.61;54.04
76808;BME280;65758;45.458;11.062;2023-04-03T06:04:18;100745.63;;;13.66;54.18
76808;BME280;65758;45.458;11.062;2023-04-03T06:06:54;100744.35;;;13.77;54.40
76808;BME280;65758;45.458;11.062;2023-04-03T06:09:23;100749.46;;;13.93;54.28
76808;BME280;65758;45.458;11.062;2023-04-03T06:11:50;100742.61;;;14.10;54.19
76808;BME280;65758;45.458;11.062;2023-04-03T06:14:18;100747.16;;;14.29;54.17
76808;BME280;65758;45.458;11.062;2023-04-03T06:16:45;100746.40;;;14.49;54.04
76808;BME280;65758;45.458;11.062;2023-04-03T06:19:13;100747.99;;;14.67;53.77
76808;BME280;65758;45.458;11.062;2023-04-03T06:21:44;100750.89;;;14.84;53.71
76808;BME280;65758;45.458;11.062;2023-04-03T06:24:15;100753.80;;;14.98;53.25
76808;BME280;65758;45.458;11.062;2023-04-03T06:26:42;100753.77;;;15.06;53.40
76808;BME280;65758;45.458;11.062;2023-04-03T06:29:09;100755.22;;;15.12;53.21
76808;BME280;65758;45.458;11.062;2023-04-03T06:31:36;100756.73;;;15.15;53.37
76808;BME280;65758;45.458;11.062;2023-04-03T06:34:03;100755.85;;;15.19;53.18
76808;BME280;65758;45.458;11.062;2023-04-03T06:36:33;100756.23;;;15.22;53.35
76808;BME280;65758;45.458;11.062;2023-04-03T06:39:01;100754.08;;;15.27;53.34
76808;BME280;65758;45.458;11.062;2023-04-03T06:41:29;100753.83;;;15.33;53.48
76808;BME280;65758;45.458;11.062;2023-04-03T06:43:56;100754.96;;;15.42;53.42
76808;BME280;65758;45.458;11.062;2023-04-03T06:46:26;100756.20;;;15.47;53.27
76808;BME280;65758;45.458;11.062;2023-04-03T06:48:53;100758.30;;;15.50;52.98
76808;BME280;65758;45.458;11.062;2023-04-03T06:51:28;100759.63;;;15.49;53.06
76808;BME280;65758;45.458;11.062;2023-04-03T06:53:58;100761.01;;;15.48;53.31
76808;BME280;65758;45.458;11.062;2023-04-03T06:56:26;100758.80;;;15.47;53.22
76808;BME280;65758;45.458;11.062;2023-04-03T06:58:54;100761.30;;;15.49;53.36
76808;BME280;65758;45.458;11.062;2023-04-03T07:01:24;100759.45;;;15.50;53.12
76808;BME280;65758;45.458;11.062;2023-04-03T07:03:53;100758.27;;;15.52;53.34
76808;BME280;65758;45.458;11.062;2023-04-03T07:06:19;100758.25;;;15.56;53.56
76808;BME280;65758;45.458;11.062;2023-04-03T07:08:46;100758.68;;;15.60;53.55
76808;BME280;65758;45.458;11.062;2023-04-03T07:11:16;100759.92;;;15.63;53.30
76808;BME280;65758;45.458;11.062;2023-04-03T07:13:43;100759.99;;;15.65;53.11
76808;BME280;65758;45.458;11.062;2023-04-03T07:16:10;100760.80;;;15.63;52.70
76808;BME280;65758;45.458;11.062;2023-04-03T07:18:37;100761.78;;;15.56;52.57
76808;BME280;65758;45.458;11.062;2023-04-03T07:21:04;100765.83;;;15.49;52.90
76808;BME280;65758;45.458;11.062;2023-04-03T07:23:31;100767.86;;;15.46;52.94
76808;BME280;65758;45.458;11.062;2023-04-03T07:25:58;100768.79;;;15.45;53.06
76808;BME280;65758;45.458;11.062;2023-04-03T07:28:24;100767.74;;;15.45;52.98
76808;BME280;65758;45.458;11.062;2023-04-03T07:30:58;100769.61;;;15.45;52.95
76808;BME280;65758;45.458;11.062;2023-04-03T07:33:26;100772.64;;;15.47;52.86
76808;BME280;65758;45.458;11.062;2023-04-03T07:35:52;100777.57;;;15.52;52.94
76808;BME280;65758;45.458;11.062;2023-04-03T07:38:19;100784.70;;;15.57;52.83
76808;BME280;65758;45.458;11.062;2023-04-03T07:40:47;100790.16;;;15.62;52.61
76808;BME280;65758;45.458;11.062;2023-04-03T07:43:15;100788.19;;;15.64;52.75
76808;BME280;65758;45.458;11.062;2023-04-03T07:45:42;100791.92;;;15.68;52.70
76808;BME280;65758;45.458;11.062;2023-04-03T07:48:11;100794.38;;;15.70;52.38
76808;BME280;65758;45.458;11.062;2023-04-03T07:50:40;100789.92;;;15.72;52.06
76808;BME280;65758;45.458;11.062;2023-04-03T07:53:07;100790.59;;;15.72;51.96
76808;BME280;65758;45.458;11.062;2023-04-03T07:55:34;100787.83;;;15.72;52.29
76808;BME280;65758;45.458;11.062;2023-04-03T07:58:04;100786.16;;;15.75;52.31
76808;BME280;65758;45.458;11.062;2023-04-03T08:00:31;100788.02;;;15.78;52.04
76808;BME280;65758;45.458;11.062;2023-04-03T08:02:58;100788.95;;;15.83;51.90
76808;BME280;65758;45.458;11.062;2023-04-03T08:05:25;100790.98;;;15.87;51.87
76808;BME280;65758;45.458;11.062;2023-04-03T08:07:51;100790.78;;;15.89;51.70
76808;BME280;65758;45.458;11.062;2023-04-03T08:10:18;100791.23;;;15.91;51.38
76808;BME280;65758;45.458;11.062;2023-04-03T08:12:47;100792.30;;;15.92;51.56
76808;BME280;65758;45.458;11.062;2023-04-03T08:15:16;100791.92;;;16.00;51.30
76808;BME280;65758;45.458;11.062;2023-04-03T08:17:42;100792.56;;;16.09;51.12
76808;BME280;65758;45.458;11.062;2023-04-03T08:20:10;100791.67;;;16.14;50.56
76808;BME280;65758;45.458;11.062;2023-04-03T08:22:36;100786.96;;;16.17;50.59
76808;BME280;65758;45.458;11.062;2023-04-03T08:25:03;100788.52;;;16.19;50.57
76808;BME280;65758;45.458;11.062;2023-04-03T08:27:30;100794.27;;;16.24;50.41
76808;BME280;65758;45.458;11.062;2023-04-03T08:29:58;100788.73;;;16.28;50.34
76808;BME280;65758;45.458;11.062;2023-04-03T08:32:25;100791.08;;;16.33;50.03
76808;BME280;65758;45.458;11.062;2023-04-03T08:34:52;100796.30;;;16.36;49.74
76808;BME280;65758;45.458;11.062;2023-04-03T08:37:19;100797.49;;;16.35;49.54
76808;BME280;65758;45.458;11.062;2023-04-03T08:39:46;100791.04;;;16.36;49.47
76808;BME280;65758;45.458;11.062;2023-04-03T08:42:41;100791.29;;;16.40;49.61
76808;BME280;65758;45.458;11.062;2023-04-03T08:48:06;100791.76;;;16.56;49.73
76808;BME280;65758;45.458;11.062;2023-04-03T08:50:38;100788.64;;;16.64;49.11
76808;BME280;65758;45.458;11.062;2023-04-03T08:53:20;100792.70;;;16.69;48.59
76808;BME280;65758;45.458;11.062;2023-04-03T08:55:49;100795.61;;;16.73;48.70
76808;BME280;65758;45.458;11.062;2023-04-03T08:58:22;100792.50;;;16.78;48.50
76808;BME280;65758;45.458;11.062;2023-04-03T09:01:00;100791.46;;;16.81;47.79
76808;BME280;65758;45.458;11.062;2023-04-03T09:03:31;100790.58;;;16.83;47.83
76808;BME280;65758;45.458;11.062;2023-04-03T09:06:05;100791.02;;;16.89;48.07
76808;BME280;65758;45.458;11.062;2023-04-03T09:08:41;100794.59;;;16.95;47.60
76808;BME280;65758;45.458;11.062;2023-04-03T09:13:57;100796.95;;;17.02;46.67
76808;BME280;65758;45.458;11.062;2023-04-03T09:21:57;100792.40;;;17.19;46.85
76808;BME280;65758;45.458;11.062;2023-04-03T09:24:24;100788.34;;;17.29;46.92
76808;BME280;65758;45.458;11.062;2023-04-03T09:26:56;100787.89;;;17.39;46.52
76808;BME280;65758;45.458;11.062;2023-04-03T09:29:26;100788.61;;;17.38;46.46
76808;BME280;65758;45.458;11.062;2023-04-03T09:31:58;100786.68;;;17.42;46.36
76808;BME280;65758;45.458;11.062;2023-04-03T09:34:31;100785.43;;;17.48;46.13
76808;BME280;65758;45.458;11.062;2023-04-03T09:37:00;100783.34;;;17.49;46.03
76808;BME280;65758;45.458;11.062;2023-04-03T09:39:51;100783.40;;;17.26;45.46
76808;BME280;65758;45.458;11.062;2023-04-03T09:42:22;100783.56;;;17.12;45.55
76808;BME280;65758;45.458;11.062;2023-04-03T09:44:55;100784.67;;;16.91;46.10
76808;BME280;65758;45.458;11.062;2023-04-03T09:47:28;100786.27;;;16.79;46.22
76808;BME280;65758;45.458;11.062;2023-04-03T09:50:19;100787.09;;;16.64;46.39
76808;BME280;65758;45.458;11.062;2023-04-03T09:52:49;100786.77;;;16.73;46.31
76808;BME280;65758;45.458;11.062;2023-04-03T09:55:19;100785.66;;;17.00;46.00
76808;BME280;65758;45.458;11.062;2023-04-03T09:57:48;100780.21;;;17.30;45.76
76808;BME280;65758;45.458;11.062;2023-04-03T10:02:51;100767.75;;;17.84;44.52
76808;BME280;65758;45.458;11.062;2023-04-03T10:08:21;100765.13;;;18.30;43.58
76808;BME280;65758;45.458;11.062;2023-04-03T10:13:33;100764.86;;;18.86;42.05
76808;BME280;65758;45.458;11.062;2023-04-03T10:16:17;100773.63;;;19.04;41.54
76808;BME280;65758;45.458;11.062;2023-04-03T10:21:44;100767.14;;;18.83;41.71
76808;BME280;65758;45.458;11.062;2023-04-03T10:24:28;100766.46;;;18.54;41.29
76808;BME280;65758;45.458;11.062;2023-04-03T10:27:21;100767.89;;;18.26;41.94
76808;BME280;65758;45.458;11.062;2023-04-03T10:30:09;100759.14;;;18.16;42.45
76808;BME280;65758;45.458;11.062;2023-04-03T10:38:22;100767.92;;;17.53;42.47
76808;BME280;65758;45.458;11.062;2023-04-03T10:44:04;100759.52;;;17.26;43.38
76808;BME280;65758;45.458;11.062;2023-04-03T10:46:44;100758.22;;;17.20;43.52
76808;BME280;65758;45.458;11.062;2023-04-03T10:49:29;100755.79;;;17.20;43.66
76808;BME280;65758;45.458;11.062;2023-04-03T10:52:10;100754.79;;;17.23;43.73
76808;BME280;65758;45.458;11.062;2023-04-03T10:54:52;100750.95;;;17.28;43.56
76808;BME280;65758;45.458;11.062;2023-04-03T10:57:23;100753.70;;;17.24;43.23
76808;BME280;65758;45.458;11.062;2023-04-03T11:00:00;100756.77;;;17.18;43.22
76808;BME280;65758;45.458;11.062;2023-04-03T11:02:36;100751.27;;;17.11;43.13
76808;BME280;65758;45.458;11.062;2023-04-03T11:05:17;100749.81;;;17.09;42.96
76808;BME280;65758;45.458;11.062;2023-04-03T11:07:50;100750.20;;;17.08;43.28
76808;BME280;65758;45.458;11.062;2023-04-03T11:10:26;100747.55;;;17.10;43.32
76808;BME280;65758;45.458;11.062;2023-04-03T11:15:54;100737.19;;;17.18;42.92
76808;BME280;65758;45.458;11.062;2023-04-03T11:18:26;100730.62;;;17.21;43.08
76808;BME280;65758;45.458;11.062;2023-04-03T11:21:14;100723.17;;;17.26;43.16
76808;BME280;65758;45.458;11.062;2023-04-03T11:23:43;100724.73;;;17.29;42.63
76808;BME280;65758;45.458;11.062;2023-04-03T11:26:18;100723.27;;;17.40;42.87
76808;BME280;65758;45.458;11.062;2023-04-03T11:28:53;100721.23;;;17.57;42.59
76808;BME280;65758;45.458;11.062;2023-04-03T11:34:15;100714.30;;;17.77;42.65
76808;BME280;65758;45.458;11.062;2023-04-03T11:36:50;100715.42;;;17.81;42.27
76808;BME280;65758;45.458;11.062;2023-04-03T11:39:24;100711.78;;;17.82;42.27
76808;BME280;65758;45.458;11.062;2023-04-03T11:41:52;100712.00;;;18.05;42.08
76808;BME280;65758;45.458;11.062;2023-04-03T11:44:38;100709.45;;;18.24;41.84
76808;BME280;65758;45.458;11.062;2023-04-03T11:47:08;100699.90;;;18.37;41.72
76808;BME280;65758;45.458;11.062;2023-04-03T11:49:55;100702.33;;;18.49;41.81
76808;BME280;65758;45.458;11.062;2023-04-03T12:27:15;100669.04;;;18.33;40.46
76808;BME280;65758;45.458;11.062;2023-04-03T12:29:52;100666.73;;;18.25;40.42
76808;BME280;65758;45.458;11.062;2023-04-03T12:32:40;100665.97;;;18.17;40.50
76808;BME280;65758;45.458;11.062;2023-04-03T12:35:29;100658.83;;;18.11;40.73
76808;BME280;65758;45.458;11.062;2023-04-03T12:47:29;100659.17;;;17.82;40.71
76808;BME280;65758;45.458;11.062;2023-04-03T12:50:00;100651.80;;;17.73;40.77
76808;BME280;65758;45.458;11.062;2023-04-03T12:52:44;100646.10;;;17.67;40.89
76808;BME280;65758;45.458;11.062;2023-04-03T12:55:17;100643.27;;;17.60;41.15
76808;BME280;65758;45.458;11.062;2023-04-03T12:57:44;100644.30;;;17.55;41.35
76808;BME280;65758;45.458;11.062;2023-04-03T13:00:34;100641.91;;;17.50;41.55
76808;BME280;65758;45.458;11.062;2023-04-03T13:03:03;100638.41;;;17.46;41.38
76808;BME280;65758;45.458;11.062;2023-04-03T13:05:32;100638.69;;;17.44;41.32
76808;BME280;65758;45.458;11.062;2023-04-03T13:08:07;100642.55;;;17.45;41.55
76808;BME280;65758;45.458;11.062;2023-04-03T13:10:51;100642.00;;;17.46;41.53
76808;BME280;65758;45.458;11.062;2023-04-03T13:13:19;100644.16;;;17.45;41.37
76808;BME280;65758;45.458;11.062;2023-04-03T13:15:47;100645.82;;;17.47;41.87
76808;BME280;65758;45.458;11.062;2023-04-03T13:20:50;100639.23;;;17.45;41.34
76808;BME280;65758;45.458;11.062;2023-04-03T13:23:19;100636.41;;;17.40;41.44
76808;BME280;65758;45.458;11.062;2023-04-03T13:25:48;100637.33;;;17.37;41.66
76808;BME280;65758;45.458;11.062;2023-04-03T13:28:22;100636.35;;;17.38;41.79
76808;BME280;65758;45.458;11.062;2023-04-03T13:34:03;100632.48;;;17.35;42.33
76808;BME280;65758;45.458;11.062;2023-04-03T13:41:37;100629.66;;;17.14;42.19
76808;BME280;65758;45.458;11.062;2023-04-03T13:46:58;100630.85;;;17.03;42.68
76808;BME280;65758;45.458;11.062;2023-04-03T13:51:54;100633.98;;;16.97;42.78
76808;BME280;65758;45.458;11.062;2023-04-03T13:54:38;100634.36;;;16.94;42.83
76808;BME280;65758;45.458;11.062;2023-04-03T13:57:15;100630.33;;;16.93;42.92
76808;BME280;65758;45.458;11.062;2023-04-03T13:59:43;100632.30;;;16.88;42.79
76808;BME280;65758;45.458;11.062;2023-04-03T14:02:15;100626.24;;;16.83;43.03
76808;BME280;65758;45.458;11.062;2023-04-03T14:07:12;100621.89;;;16.70;42.84
76808;BME280;65758;45.458;11.062;2023-04-03T14:09:39;100619.48;;;16.68;42.86
76808;BME280;65758;45.458;11.062;2023-04-03T14:12:21;100620.59;;;16.67;43.13
76808;BME280;65758;45.458;11.062;2023-04-03T14:14:59;100620.36;;;16.62;43.09
76808;BME280;65758;45.458;11.062;2023-04-03T14:17:28;100619.16;;;16.57;43.09
76808;BME280;65758;45.458;11.062;2023-04-03T14:19:57;100616.64;;;16.53;42.97
76808;BME280;65758;45.458;11.062;2023-04-03T14:22:29;100617.46;;;16.50;43.29
76808;BME280;65758;45.458;11.062;2023-04-03T14:24:58;100615.62;;;16.48;43.18
76808;BME280;65758;45.458;11.062;2023-04-03T14:27:27;100610.53;;;16.46;43.06
76808;BME280;65758;45.458;11.062;2023-04-03T14:29:57;100612.51;;;16.45;43.47
76808;BME280;65758;45.458;11.062;2023-04-03T14:32:24;100611.29;;;16.42;43.19
76808;BME280;65758;45.458;11.062;2023-04-03T14:34:52;100609.89;;;16.41;43.21
76808;BME280;65758;45.458;11.062;2023-04-03T14:37:23;100603.54;;;16.41;43.07
76808;BME280;65758;45.458;11.062;2023-04-03T14:39:52;100604.17;;;16.45;43.26